sensor_id;sensor_type;location;lat;lon;timestamp;temperature;humidity
42031;DHT22;27709;52.036;5.906;2022-10-23T00:00:33;12.80;99.90
42031;DHT22;27709;52.036;5.906;2022-10-23T00:02:58;12.80;99.90
42031;DHT22;27709;52.036;5.906;2022-10-23T00:05:25;12.80;99.90
42031;DHT22;27709;52.036;5.906;2022-10-23T00:07:52;12.80;99.90
42031;DHT22;27709;52.036;5.906;2022-10-23T00:10:18;12.80;99.90
42031;DHT22;27709;52.036;5.906;2022-10-23T00:12:45;12.90;99.90
42031;DHT22;27709;52.036;5.906;2022-10-23T00:15:11;12.80;99.90
42031;DHT22;27709;52.036;5.906;2022-10-23T00:17:36;12.80;99.90
42031;DHT22;27709;52.036;5.906;2022-10-23T00:20:04;12.80;99.90
42031;DHT22;27709;52.036;5.906;2022-10-23T00:22:29;12.80;99.90
42031;DHT22;27709;52.036;5.906;2022-10-23T00:24:55;12.80;99.90
42031;DHT22;27709;52.036;5.906;2022-10-23T00:27:20;12.70;99.90
42031;DHT22;27709;52.036;5.906;2022-10-23T00:29:46;12.70;99.90
42031;DHT22;27709;52.036;5.906;2022-10-23T00:32:12;12.70;99.90
42031;DHT22;27709;52.036;5.906;2022-10-23T00:34:37;12.60;99.90
42031;DHT22;27709;52.036;5.906;2022-10-23T00:37:03;12.60;99.90
42031;DHT22;27709;52.036;5.906;2022-10-23T00:39:28;12.50;99.90
42031;DHT22;27709;52.036;5.906;2022-10-23T00:41:54;12.60;99.90
42031;DHT22;27709;52.036;5.906;2022-10-23T00:46:45;12.50;99.90
42031;DHT22;27709;52.036;5.906;2022-10-23T00:49:13;12.50;99.90
42031;DHT22;27709;52.036;5.906;2022-10-23T00:54:07;12.40;99.90
42031;DHT22;27709;52.036;5.906;2022-10-23T00:56:35;12.40;99.90
42031;DHT22;27709;52.036;5.906;2022-10-23T00:59:02;12.30;99.90
42031;DHT22;27709;52.036;5.906;2022-10-23T01:01:28;12.30;99.90
42031;DHT22;27709;52.036;5.906;2022-10-23T01:03:53;12.20;99.90
42031;DHT22;27709;52.036;5.906;2022-10-23T01:06:30;12.20;99.90
42031;DHT22;27709;52.036;5.906;2022-10-23T01:09:12;12.20;99.90
42031;DHT22;27709;52.036;5.906;2022-10-23T01:14:39;12.20;99.90
42031;DHT22;27709;52.036;5.906;2022-10-23T01:17:27;12.20;99.90
42031;DHT22;27709;52.036;5.906;2022-10-23T01:28:28;12.10;99.90
42031;DHT22;27709;52.036;5.906;2022-10-23T01:30:56;12.10;99.90
42031;DHT22;27709;52.036;5.906;2022-10-23T01:33:35;12.10;99.90
42031;DHT22;27709;52.036;5.906;2022-10-23T01:36:05;12.10;99.90
42031;DHT22;27709;52.036;5.906;2022-10-23T01:38:35;12.10;99.90
42031;DHT22;27709;52.036;5.906;2022-10-23T01:41:16;12.00;99.90
42031;DHT22;27709;52.036;5.906;2022-10-23T01:43:47;12.00;99.90
42031;DHT22;27709;52.036;5.906;2022-10-23T01:46:16;11.90;99.90
42031;DHT22;27709;52.036;5.906;2022-10-23T01:48:46;11.90;99.90
42031;DHT22;27709;52.036;5.906;2022-10-23T01:51:13;11.90;99.90
42031;DHT22;27709;52.036;5.906;2022-10-23T01:53:41;11.90;99.90
42031;DHT22;27709;52.036;5.906;2022-10-23T01:56:13;11.90;99.90
42031;DHT22;27709;52.036;5.906;2022-10-23T01:58:43;11.80;99.90
42031;DHT22;27709;52.036;5.906;2022-10-23T02:01:10;11.80;99.90
42031;DHT22;27709;52.036;5.906;2022-10-23T02:03:38;11.70;99.90
42031;DHT22;27709;52.036;5.906;2022-10-23T02:06:04;11.70;99.90
42031;DHT22;27709;52.036;5.906;2022-10-23T02:08:30;11.70;99.90
42031;DHT22;27709;52.036;5.906;2022-10-23T02:13:34;11.70;99.90
42031;DHT22;27709;52.036;5.906;2022-10-23T02:16:08;11.80;99.90
42031;DHT22;27709;52.036;5.906;2022-10-23T02:19:06;11.70;99.90
42031;DHT22;27709;52.036;5.906;2022-10-23T02:21:40;11.70;99.90
42031;DHT22;27709;52.036;5.906;2022-10-23T02:24:14;11.80;99.90
42031;DHT22;27709;52.036;5.906;2022-10-23T02:26:45;11.70;99.90
42031;DHT22;27709;52.036;5.906;2022-10-23T02:29:18;11.80;99.90
42031;DHT22;27709;52.036;5.906;2022-10-23T02:31:45;11.80;99.90
42031;DHT22;27709;52.036;5.906;2022-10-23T02:34:11;11.80;99.90
42031;DHT22;27709;52.036;5.906;2022-10-23T02:36:36;11.80;99.90
42031;DHT22;27709;52.036;5.906;2022-10-23T02:39:03;11.70;99.90
42031;DHT22;27709;52.036;5.906;2022-10-23T02:41:54;11.70;99.90
42031;DHT22;27709;52.036;5.906;2022-10-23T02:44:34;11.70;99.90
42031;DHT22;27709;52.036;5.906;2022-10-23T02:50:25;11.80;99.90
42031;DHT22;27709;52.036;5.906;2022-10-23T02:58:09;11.80;99.90
42031;DHT22;27709;52.036;5.906;2022-10-23T03:00:39;11.90;99.90
42031;DHT22;27709;52.036;5.906;2022-10-23T03:03:17;11.90;99.90
42031;DHT22;27709;52.036;5.906;2022-10-23T03:05:43;12.00;99.90
42031;DHT22;27709;52.036;5.906;2022-10-23T03:08:11;12.00;99.90
42031;DHT22;27709;52.036;5.906;2022-10-23T03:10:37;12.00;99.90
42031;DHT22;27709;52.036;5.906;2022-10-23T03:13:03;12.00;99.90
42031;DHT22;27709;52.036;5.906;2022-10-23T03:15:29;12.00;99.90
42031;DHT22;27709;52.036;5.906;2022-10-23T03:17:54;12.00;99.90
42031;DHT22;27709;52.036;5.906;2022-10-23T03:20:20;12.00;99.90
42031;DHT22;27709;52.036;5.906;2022-10-23T03:22:45;12.10;99.90
42031;DHT22;27709;52.036;5.906;2022-10-23T03:25:11;12.10;99.90
42031;DHT22;27709;52.036;5.906;2022-10-23T03:27:36;12.10;99.90
42031;DHT22;27709;52.036;5.906;2022-10-23T03:30:03;12.10;99.90
42031;DHT22;27709;52.036;5.906;2022-10-23T03:32:29;12.10;99.90
42031;DHT22;27709;52.036;5.906;2022-10-23T03:34:54;12.10;99.90
42031;DHT22;27709;52.036;5.906;2022-10-23T03:37:20;12.10;99.90
42031;DHT22;27709;52.036;5.906;2022-10-23T03:39:45;12.10;99.90
42031;DHT22;27709;52.036;5.906;2022-10-23T03:42:11;12.20;99.90
42031;DHT22;27709;52.036;5.906;2022-10-23T03:44:36;12.20;99.90
42031;DHT22;27709;52.036;5.906;2022-10-23T03:47:02;12.20;99.90
42031;DHT22;27709;52.036;5.906;2022-10-23T03:49:28;12.20;99.90
42031;DHT22;27709;52.036;5.906;2022-10-23T03:51:53;12.20;99.90
42031;DHT22;27709;52.036;5.906;2022-10-23T03:54:24;12.20;99.90
42031;DHT22;27709;52.036;5.906;2022-10-23T03:56:51;12.20;99.90
42031;DHT22;27709;52.036;5.906;2022-10-23T03:59:17;12.30;99.90
42031;DHT22;27709;52.036;5.906;2022-10-23T04:01:42;12.30;99.90
42031;DHT22;27709;52.036;5.906;2022-10-23T04:04:08;12.30;99.90
42031;DHT22;27709;52.036;5.906;2022-10-23T04:06:34;12.30;99.90
42031;DHT22;27709;52.036;5.906;2022-10-23T04:09:00;12.30;99.90
42031;DHT22;27709;52.036;5.906;2022-10-23T04:11:25;12.30;99.90
42031;DHT22;27709;52.036;5.906;2022-10-23T04:13:51;12.30;99.90
42031;DHT22;27709;52.036;5.906;2022-10-23T04:16:17;12.40;99.90
42031;DHT22;27709;52.036;5.906;2022-10-23T04:18:42;12.40;99.90
42031;DHT22;27709;52.036;5.906;2022-10-23T04:21:09;12.30;99.90
42031;DHT22;27709;52.036;5.906;2022-10-23T04:23:35;12.40;99.90
42031;DHT22;27709;52.036;5.906;2022-10-23T04:26:01;12.40;99.90
42031;DHT22;27709;52.036;5.906;2022-10-23T04:28:27;12.40;99.90
42031;DHT22;27709;52.036;5.906;2022-10-23T04:30:52;12.30;99.90
42031;DHT22;27709;52.036;5.906;2022-10-23T04:33:19;12.30;99.90
42031;DHT22;27709;52.036;5.906;2022-10-23T04:35:45;12.20;99.90
42031;DHT22;27709;52.036;5.906;2022-10-23T04:38:10;12.20;99.90
42031;DHT22;27709;52.036;5.906;2022-10-23T04:40:36;12.20;99.90
42031;DHT22;27709;52.036;5.906;2022-10-23T04:43:02;12.20;99.90
42031;DHT22;27709;52.036;5.906;2022-10-23T04:45:28;12.20;99.90
42031;DHT22;27709;52.036;5.906;2022-10-23T04:47:53;12.20;99.90
42031;DHT22;27709;52.036;5.906;2022-10-23T04:50:20;12.30;99.90
42031;DHT22;27709;52.036;5.906;2022-10-23T04:52:46;12.30;99.90
42031;DHT22;27709;52.036;5.906;2022-10-23T04:55:11;12.30;99.90
42031;DHT22;27709;52.036;5.906;2022-10-23T04:57:37;12.40;99.90
42031;DHT22;27709;52.036;5.906;2022-10-23T05:00:07;12.40;99.90
42031;DHT22;27709;52.036;5.906;2022-10-23T05:02:33;12.40;99.90
42031;DHT22;27709;52.036;5.906;2022-10-23T05:04:59;12.50;99.90
42031;DHT22;27709;52.036;5.906;2022-10-23T05:07:25;12.50;99.90
42031;DHT22;27709;52.036;5.906;2022-10-23T05:09:50;12.60;99.90
42031;DHT22;27709;52.036;5.906;2022-10-23T05:12:16;12.60;99.90
42031;DHT22;27709;52.036;5.906;2022-10-23T05:14:41;12.60;99.90
42031;DHT22;27709;52.036;5.906;2022-10-23T05:17:25;12.70;99.90
42031;DHT22;27709;52.036;5.906;2022-10-23T05:19:54;12.60;99.90
42031;DHT22;27709;52.036;5.906;2022-10-23T05:22:24;12.60;99.90
42031;DHT22;27709;52.036;5.906;2022-10-23T05:24:51;12.60;99.90
42031;DHT22;27709;52.036;5.906;2022-10-23T05:27:17;12.60;99.90
42031;DHT22;27709;52.036;5.906;2022-10-23T05:29:43;12.70;99.90
42031;DHT22;27709;52.036;5.906;2022-10-23T05:32:09;12.70;99.90
42031;DHT22;27709;52.036;5.906;2022-10-23T05:34:37;12.70;99.90
42031;DHT22;27709;52.036;5.906;2022-10-23T05:37:05;12.70;99.90
42031;DHT22;27709;52.036;5.906;2022-10-23T05:39:32;12.70;99.90
42031;DHT22;27709;52.036;5.906;2022-10-23T05:41:58;12.70;99.90
42031;DHT22;27709;52.036;5.906;2022-10-23T05:44:23;12.70;99.90
42031;DHT22;27709;52.036;5.906;2022-10-23T05:46:49;12.80;99.90
42031;DHT22;27709;52.036;5.906;2022-10-23T05:49:14;12.80;99.90
42031;DHT22;27709;52.036;5.906;2022-10-23T05:51:41;12.80;99.90
42031;DHT22;27709;52.036;5.906;2022-10-23T05:54:07;12.80;99.90
42031;DHT22;27709;52.036;5.906;2022-10-23T05:56:37;12.80;99.90
42031;DHT22;27709;52.036;5.906;2022-10-23T05:59:03;12.90;99.90
42031;DHT22;27709;52.036;5.906;2022-10-23T06:01:29;13.00;99.90
42031;DHT22;27709;52.036;5.906;2022-10-23T06:03:54;13.00;99.90
42031;DHT22;27709;52.036;5.906;2022-10-23T06:06:20;13.10;99.90
42031;DHT22;27709;52.036;5.906;2022-10-23T06:08:46;13.20;99.90
42031;DHT22;27709;52.036;5.906;2022-10-23T06:11:13;13.20;99.90
42031;DHT22;27709;52.036;5.906;2022-10-23T06:13:41;13.30;99.90
42031;DHT22;27709;52.036;5.906;2022-10-23T06:16:13;13.30;99.90
42031;DHT22;27709;52.036;5.906;2022-10-23T06:18:39;13.30;99.90
42031;DHT22;27709;52.036;5.906;2022-10-23T06:21:04;13.40;99.90
42031;DHT22;27709;52.036;5.906;2022-10-23T06:23:35;13.40;99.90
42031;DHT22;27709;52.036;5.906;2022-10-23T06:26:00;13.40;99.90
42031;DHT22;27709;52.036;5.906;2022-10-23T06:28:26;13.40;99.90
42031;DHT22;27709;52.036;5.906;2022-10-23T06:30:52;13.50;99.90
42031;DHT22;27709;52.036;5.906;2022-10-23T06:33:17;13.50;99.90
42031;DHT22;27709;52.036;5.906;2022-10-23T06:35:43;13.50;99.90
42031;DHT22;27709;52.036;5.906;2022-10-23T06:38:10;13.60;99.90
42031;DHT22;27709;52.036;5.906;2022-10-23T06:40:36;13.60;99.90
42031;DHT22;27709;52.036;5.906;2022-10-23T06:43:03;13.60;99.90
42031;DHT22;27709;52.036;5.906;2022-10-23T06:45:29;13.60;99.90
42031;DHT22;27709;52.036;5.906;2022-10-23T06:47:56;13.60;99.90
42031;DHT22;27709;52.036;5.906;2022-10-23T06:50:22;13.60;99.90
42031;DHT22;27709;52.036;5.906;2022-10-23T06:52:49;13.70;99.90
42031;DHT22;27709;52.036;5.906;2022-10-23T06:55:15;13.70;99.90
42031;DHT22;27709;52.036;5.906;2022-10-23T06:57:41;13.70;99.90
42031;DHT22;27709;52.036;5.906;2022-10-23T07:00:07;13.70;99.90
42031;DHT22;27709;52.036;5.906;2022-10-23T07:02:33;13.80;99.90
42031;DHT22;27709;52.036;5.906;2022-10-23T07:04:58;13.80;99.90
42031;DHT22;27709;52.036;5.906;2022-10-23T07:07:24;13.80;99.90
42031;DHT22;27709;52.036;5.906;2022-10-23T07:09:49;13.90;99.90
42031;DHT22;27709;52.036;5.906;2022-10-23T07:12:15;13.90;99.90
42031;DHT22;27709;52.036;5.906;2022-10-23T07:14:40;13.90;99.90
42031;DHT22;27709;52.036;5.906;2022-10-23T07:17:06;13.90;99.90
42031;DHT22;27709;52.036;5.906;2022-10-23T07:19:31;13.90;99.90
42031;DHT22;27709;52.036;5.906;2022-10-23T07:21:57;13.90;99.90
42031;DHT22;27709;52.036;5.906;2022-10-23T07:24:22;14.00;99.90
42031;DHT22;27709;52.036;5.906;2022-10-23T07:26:48;14.00;99.90
42031;DHT22;27709;52.036;5.906;2022-10-23T07:29:13;14.00;99.90
42031;DHT22;27709;52.036;5.906;2022-10-23T07:31:39;14.10;99.90
42031;DHT22;27709;52.036;5.906;2022-10-23T07:34:05;14.20;99.90
42031;DHT22;27709;52.036;5.906;2022-10-23T07:36:31;14.20;99.90
42031;DHT22;27709;52.036;5.906;2022-10-23T07:38:56;14.20;99.90
42031;DHT22;27709;52.036;5.906;2022-10-23T07:41:22;14.20;99.90
42031;DHT22;27709;52.036;5.906;2022-10-23T07:43:48;14.20;99.90
42031;DHT22;27709;52.036;5.906;2022-10-23T07:46:13;14.30;99.90
42031;DHT22;27709;52.036;5.906;2022-10-23T07:48:39;14.30;99.90
42031;DHT22;27709;52.036;5.906;2022-10-23T07:51:07;14.30;99.90
42031;DHT22;27709;52.036;5.906;2022-10-23T07:53:35;14.40;99.90
42031;DHT22;27709;52.036;5.906;2022-10-23T07:56:08;14.40;99.90
42031;DHT22;27709;52.036;5.906;2022-10-23T07:58:34;14.50;99.90
42031;DHT22;27709;52.036;5.906;2022-10-23T08:01:02;14.50;99.90
42031;DHT22;27709;52.036;5.906;2022-10-23T08:03:32;14.50;99.90
42031;DHT22;27709;52.036;5.906;2022-10-23T08:05:58;14.60;99.90
42031;DHT22;27709;52.036;5.906;2022-10-23T08:08:25;14.60;99.90
42031;DHT22;27709;52.036;5.906;2022-10-23T08:10:53;14.60;99.90
42031;DHT22;27709;52.036;5.906;2022-10-23T08:13:20;14.70;99.90
42031;DHT22;27709;52.036;5.906;2022-10-23T08:15:47;14.70;99.90
42031;DHT22;27709;52.036;5.906;2022-10-23T08:18:13;14.80;99.90
42031;DHT22;27709;52.036;5.906;2022-10-23T08:20:40;14.80;99.90
42031;DHT22;27709;52.036;5.906;2022-10-23T08:23:06;14.70;99.90
42031;DHT22;27709;52.036;5.906;2022-10-23T08:25:32;14.80;99.90
42031;DHT22;27709;52.036;5.906;2022-10-23T08:27:58;14.80;99.90
42031;DHT22;27709;52.036;5.906;2022-10-23T08:30:25;14.80;99.90
42031;DHT22;27709;52.036;5.906;2022-10-23T08:32:50;14.80;99.90
42031;DHT22;27709;52.036;5.906;2022-10-23T08:35:16;14.80;99.90
42031;DHT22;27709;52.036;5.906;2022-10-23T08:37:41;14.90;99.90
42031;DHT22;27709;52.036;5.906;2022-10-23T08:40:14;14.90;99.90
42031;DHT22;27709;52.036;5.906;2022-10-23T08:42:41;14.90;99.90
42031;DHT22;27709;52.036;5.906;2022-10-23T08:45:25;15.00;99.90
42031;DHT22;27709;52.036;5.906;2022-10-23T08:47:55;15.00;99.90
42031;DHT22;27709;52.036;5.906;2022-10-23T08:50:31;15.10;99.90
42031;DHT22;27709;52.036;5.906;2022-10-23T08:53:04;15.10;99.90
42031;DHT22;27709;52.036;5.906;2022-10-23T08:55:39;15.20;99.90
42031;DHT22;27709;52.036;5.906;2022-10-23T08:58:23;15.20;99.90
42031;DHT22;27709;52.036;5.906;2022-10-23T09:00:53;15.20;99.90
42031;DHT22;27709;52.036;5.906;2022-10-23T09:03:20;15.30;99.90
42031;DHT22;27709;52.036;5.906;2022-10-23T09:13:57;15.40;99.90
42031;DHT22;27709;52.036;5.906;2022-10-23T09:19:17;15.60;99.90
42031;DHT22;27709;52.036;5.906;2022-10-23T09:21:45;15.60;99.90
42031;DHT22;27709;52.036;5.906;2022-10-23T09:24:16;15.70;99.90
42031;DHT22;27709;52.036;5.906;2022-10-23T09:26:46;15.70;99.90
42031;DHT22;27709;52.036;5.906;2022-10-23T09:31:54;15.70;99.90
42031;DHT22;27709;52.036;5.906;2022-10-23T09:34:22;15.70;99.90
42031;DHT22;27709;52.036;5.906;2022-10-23T09:36:53;15.70;99.90
42031;DHT22;27709;52.036;5.906;2022-10-23T09:39:45;15.60;99.90
42031;DHT22;27709;52.036;5.906;2022-10-23T09:42:24;15.70;99.90
42031;DHT22;27709;52.036;5.906;2022-10-23T09:44:52;15.70;99.90
42031;DHT22;27709;52.036;5.906;2022-10-23T09:47:20;15.70;99.90
42031;DHT22;27709;52.036;5.906;2022-10-23T09:49:49;15.70;99.90
42031;DHT22;27709;52.036;5.906;2022-10-23T09:54:52;15.70;99.90
42031;DHT22;27709;52.036;5.906;2022-10-23T09:59:52;15.70;99.90
42031;DHT22;27709;52.036;5.906;2022-10-23T10:02:34;15.70;99.90
42031;DHT22;27709;52.036;5.906;2022-10-23T10:05:24;15.70;99.90
42031;DHT22;27709;52.036;5.906;2022-10-23T10:10:51;15.80;99.90
42031;DHT22;27709;52.036;5.906;2022-10-23T10:15:57;15.80;99.90
42031;DHT22;27709;52.036;5.906;2022-10-23T10:18:49;15.80;99.90
42031;DHT22;27709;52.036;5.906;2022-10-23T10:21:22;15.90;99.90
42031;DHT22;27709;52.036;5.906;2022-10-23T10:27:40;16.10;99.90
42031;DHT22;27709;52.036;5.906;2022-10-23T10:30:15;16.20;99.90
42031;DHT22;27709;52.036;5.906;2022-10-23T10:32:49;16.20;99.90
42031;DHT22;27709;52.036;5.906;2022-10-23T10:35:42;16.30;99.90
42031;DHT22;27709;52.036;5.906;2022-10-23T10:40:41;16.50;99.90
42031;DHT22;27709;52.036;5.906;2022-10-23T10:45:55;16.50;99.90
42031;DHT22;27709;52.036;5.906;2022-10-23T10:51:10;16.60;99.90
42031;DHT22;27709;52.036;5.906;2022-10-23T10:54:07;16.60;99.90
42031;DHT22;27709;52.036;5.906;2022-10-23T10:56:35;16.60;99.90
42031;DHT22;27709;52.036;5.906;2022-10-23T10:59:11;16.60;99.90
42031;DHT22;27709;52.036;5.906;2022-10-23T11:02:26;16.60;99.90
42031;DHT22;27709;52.036;5.906;2022-10-23T11:07:28;16.70;99.90
42031;DHT22;27709;52.036;5.906;2022-10-23T11:09:58;16.70;99.90
42031;DHT22;27709;52.036;5.906;2022-10-23T11:12:26;16.80;99.90
42031;DHT22;27709;52.036;5.906;2022-10-23T11:14:52;16.90;99.90
42031;DHT22;27709;52.036;5.906;2022-10-23T11:17:23;16.90;99.90
42031;DHT22;27709;52.036;5.906;2022-10-23T11:25:14;17.10;99.90
42031;DHT22;27709;52.036;5.906;2022-10-23T11:30:45;17.10;99.90
42031;DHT22;27709;52.036;5.906;2022-10-23T11:38:48;17.30;99.90
42031;DHT22;27709;52.036;5.906;2022-10-23T11:41:26;17.30;99.90
42031;DHT22;27709;52.036;5.906;2022-10-23T11:43:58;17.40;99.90
42031;DHT22;27709;52.036;5.906;2022-10-23T11:46:35;17.50;99.90
42031;DHT22;27709;52.036;5.906;2022-10-23T11:49:03;17.50;99.90
42031;DHT22;27709;52.036;5.906;2022-10-23T11:51:40;17.50;99.90
42031;DHT22;27709;52.036;5.906;2022-10-23T11:56:35;17.70;99.90
42031;DHT22;27709;52.036;5.906;2022-10-23T12:01:49;17.80;99.90
42031;DHT22;27709;52.036;5.906;2022-10-23T12:04:31;17.80;99.90
42031;DHT22;27709;52.036;5.906;2022-10-23T12:06:59;17.80;99.90
42031;DHT22;27709;52.036;5.906;2022-10-23T12:09:50;17.80;99.90
42031;DHT22;27709;52.036;5.906;2022-10-23T12:12:29;17.90;99.90
42031;DHT22;27709;52.036;5.906;2022-10-23T12:17:39;18.00;99.90
42031;DHT22;27709;52.036;5.906;2022-10-23T12:20:20;18.20;99.90
42031;DHT22;27709;52.036;5.906;2022-10-23T12:25:54;18.30;99.90
42031;DHT22;27709;52.036;5.906;2022-10-23T12:40:30;18.50;99.90
42031;DHT22;27709;52.036;5.906;2022-10-23T12:42:58;18.50;99.90
42031;DHT22;27709;52.036;5.906;2022-10-23T12:45:31;18.50;99.90
42031;DHT22;27709;52.036;5.906;2022-10-23T12:48:01;18.50;99.90
42031;DHT22;27709;52.036;5.906;2022-10-23T12:50:47;18.50;99.90
42031;DHT22;27709;52.036;5.906;2022-10-23T12:53:17;18.50;99.90
42031;DHT22;27709;52.036;5.906;2022-10-23T12:56:12;18.60;99.90
42031;DHT22;27709;52.036;5.906;2022-10-23T12:58:57;18.60;99.90
42031;DHT22;27709;52.036;5.906;2022-10-23T13:01:28;18.60;99.90
42031;DHT22;27709;52.036;5.906;2022-10-23T13:04:04;18.60;99.90
42031;DHT22;27709;52.036;5.906;2022-10-23T13:06:32;18.60;99.90
42031;DHT22;27709;52.036;5.906;2022-10-23T13:08:58;18.60;99.90
42031;DHT22;27709;52.036;5.906;2022-10-23T13:11:24;18.60;99.90
42031;DHT22;27709;52.036;5.906;2022-10-23T13:13:51;18.60;99.90
42031;DHT22;27709;52.036;5.906;2022-10-23T13:16:19;18.70;99.90
42031;DHT22;27709;52.036;5.906;2022-10-23T13:18:47;18.70;99.90
42031;DHT22;27709;52.036;5.906;2022-10-23T13:21:33;18.70;99.90
42031;DHT22;27709;52.036;5.906;2022-10-23T13:23:58;18.70;99.90
42031;DHT22;27709;52.036;5.906;2022-10-23T13:28:59;18.60;99.90
42031;DHT22;27709;52.036;5.906;2022-10-23T13:31:28;18.60;99.90
42031;DHT22;27709;52.036;5.906;2022-10-23T13:36:27;18.60;99.90
42031;DHT22;27709;52.036;5.906;2022-10-23T13:39:32;18.60;99.90
42031;DHT22;27709;52.036;5.906;2022-10-23T13:42:13;18.60;99.90
42031;DHT22;27709;52.036;5.906;2022-10-23T13:44:39;18.60;99.90
42031;DHT22;27709;52.036;5.906;2022-10-23T13:47:08;18.60;99.90
42031;DHT22;27709;52.036;5.906;2022-10-23T13:49:35;18.60;99.90
42031;DHT22;27709;52.036;5.906;2022-10-23T13:52:01;18.60;99.90
42031;DHT22;27709;52.036;5.906;2022-10-23T13:54:27;18.60;99.90
42031;DHT22;27709;52.036;5.906;2022-10-23T13:56:54;18.60;99.90
42031;DHT22;27709;52.036;5.906;2022-10-23T13:59:20;18.60;99.90
42031;DHT22;27709;52.036;5.906;2022-10-23T14:01:49;18.60;99.90
42031;DHT22;27709;52.036;5.906;2022-10-23T14:04:17;18.60;99.90
42031;DHT22;27709;52.036;5.906;2022-10-23T14:06:43;18.60;99.90
42031;DHT22;27709;52.036;5.906;2022-10-23T14:09:14;18.60;99.90
42031;DHT22;27709;52.036;5.906;2022-10-23T14:11:39;18.60;99.90
42031;DHT22;27709;52.036;5.906;2022-10-23T14:14:06;18.60;99.90
42031;DHT22;27709;52.036;5.906;2022-10-23T14:16:31;18.60;99.90
42031;DHT22;27709;52.036;5.906;2022-10-23T14:18:58;18.60;99.90
42031;DHT22;27709;52.036;5.906;2022-10-23T14:21:24;18.60;99.90
42031;DHT22;27709;52.036;5.906;2022-10-23T14:23:51;18.60;99.90
42031;DHT22;27709;52.036;5.906;2022-10-23T14:26:21;18.60;99.90
42031;DHT22;27709;52.036;5.906;2022-10-23T14:28:47;18.60;99.90
42031;DHT22;27709;52.036;5.906;2022-10-23T14:31:16;18.60;99.90
42031;DHT22;27709;52.036;5.906;2022-10-23T14:33:43;18.60;99.90
42031;DHT22;27709;52.036;5.906;2022-10-23T14:36:10;18.60;99.90
42031;DHT22;27709;52.036;5.906;2022-10-23T14:38:36;18.50;99.90
42031;DHT22;27709;52.036;5.906;2022-10-23T14:41:02;18.50;99.90
42031;DHT22;27709;52.036;5.906;2022-10-23T14:43:28;18.50;99.90
42031;DHT22;27709;52.036;5.906;2022-10-23T14:45:53;18.50;99.90
42031;DHT22;27709;52.036;5.906;2022-10-23T14:48:19;18.50;99.90
42031;DHT22;27709;52.036;5.906;2022-10-23T14:50:47;18.50;99.90
42031;DHT22;27709;52.036;5.906;2022-10-23T14:53:14;18.50;99.90
42031;DHT22;27709;52.036;5.906;2022-10-23T14:55:40;18.40;99.90
42031;DHT22;27709;52.036;5.906;2022-10-23T14:58:05;18.40;99.90
42031;DHT22;27709;52.036;5.906;2022-10-23T15:00:31;18.40;99.90
42031;DHT22;27709;52.036;5.906;2022-10-23T15:02:56;18.40;99.90
42031;DHT22;27709;52.036;5.906;2022-10-23T15:05:22;18.30;99.90
42031;DHT22;27709;52.036;5.906;2022-10-23T15:07:48;18.30;99.90
42031;DHT22;27709;52.036;5.906;2022-10-23T15:10:13;18.20;99.90
42031;DHT22;27709;52.036;5.906;2022-10-23T15:12:39;18.20;99.90
42031;DHT22;27709;52.036;5.906;2022-10-23T15:15:06;18.10;99.90
42031;DHT22;27709;52.036;5.906;2022-10-23T15:17:31;18.10;99.90
42031;DHT22;27709;52.036;5.906;2022-10-23T15:19:59;18.10;99.90
42031;DHT22;27709;52.036;5.906;2022-10-23T15:22:25;18.00;99.90
42031;DHT22;27709;52.036;5.906;2022-10-23T15:24:51;17.90;99.90
42031;DHT22;27709;52.036;5.906;2022-10-23T15:27:16;17.90;99.90
42031;DHT22;27709;52.036;5.906;2022-10-23T15:29:42;17.90;99.90
42031;DHT22;27709;52.036;5.906;2022-10-23T15:32:09;17.90;99.90
42031;DHT22;27709;52.036;5.906;2022-10-23T15:34:34;17.90;99.90
42031;DHT22;27709;52.036;5.906;2022-10-23T15:37:02;17.90;99.90
42031;DHT22;27709;52.036;5.906;2022-10-23T15:39:30;17.80;99.90
42031;DHT22;27709;52.036;5.906;2022-10-23T15:42:01;17.90;99.90
42031;DHT22;27709;52.036;5.906;2022-10-23T15:44:29;17.80;99.90
42031;DHT22;27709;52.036;5.906;2022-10-23T15:46:55;17.80;99.90
42031;DHT22;27709;52.036;5.906;2022-10-23T15:49:22;17.80;99.90
42031;DHT22;27709;52.036;5.906;2022-10-23T15:51:49;17.80;99.90
42031;DHT22;27709;52.036;5.906;2022-10-23T15:54:15;17.70;99.90
42031;DHT22;27709;52.036;5.906;2022-10-23T15:56:44;17.60;99.90
42031;DHT22;27709;52.036;5.906;2022-10-23T15:59:09;17.60;99.90
42031;DHT22;27709;52.036;5.906;2022-10-23T16:01:35;17.60;99.90
42031;DHT22;27709;52.036;5.906;2022-10-23T16:04:00;17.60;99.90
42031;DHT22;27709;52.036;5.906;2022-10-23T16:06:26;17.50;99.90
42031;DHT22;27709;52.036;5.906;2022-10-23T16:08:53;17.50;99.90
42031;DHT22;27709;52.036;5.906;2022-10-23T16:11:27;17.50;99.90
42031;DHT22;27709;52.036;5.906;2022-10-23T16:13:54;17.50;99.90
42031;DHT22;27709;52.036;5.906;2022-10-23T16:16:19;17.40;99.90
42031;DHT22;27709;52.036;5.906;2022-10-23T16:18:45;17.40;99.90
42031;DHT22;27709;52.036;5.906;2022-10-23T16:21:20;17.40;99.90
42031;DHT22;27709;52.036;5.906;2022-10-23T16:23:46;17.40;99.90
42031;DHT22;27709;52.036;5.906;2022-10-23T16:26:12;17.30;99.90
42031;DHT22;27709;52.036;5.906;2022-10-23T16:28:38;17.30;99.90
42031;DHT22;27709;52.036;5.906;2022-10-23T16:31:12;17.30;99.90
42031;DHT22;27709;52.036;5.906;2022-10-23T16:33:37;17.30;99.90
42031;DHT22;27709;52.036;5.906;2022-10-23T16:36:08;17.30;99.90
42031;DHT22;27709;52.036;5.906;2022-10-23T16:38:34;17.20;99.90
42031;DHT22;27709;52.036;5.906;2022-10-23T16:41:00;17.20;99.90
42031;DHT22;27709;52.036;5.906;2022-10-23T16:43:26;17.20;99.90
42031;DHT22;27709;52.036;5.906;2022-10-23T16:46:12;17.20;99.90
42031;DHT22;27709;52.036;5.906;2022-10-23T16:48:38;17.20;99.90
42031;DHT22;27709;52.036;5.906;2022-10-23T16:51:19;17.20;99.90
42031;DHT22;27709;52.036;5.906;2022-10-23T16:53:46;17.20;99.90
42031;DHT22;27709;52.036;5.906;2022-10-23T16:56:14;17.10;99.90
42031;DHT22;27709;52.036;5.906;2022-10-23T16:58:40;17.10;99.90
42031;DHT22;27709;52.036;5.906;2022-10-23T17:01:15;17.00;99.90
42031;DHT22;27709;52.036;5.906;2022-10-23T17:03:42;17.00;99.90
42031;DHT22;27709;52.036;5.906;2022-10-23T17:06:11;16.90;99.90
42031;DHT22;27709;52.036;5.906;2022-10-23T17:08:37;16.90;99.90
42031;DHT22;27709;52.036;5.906;2022-10-23T17:13:28;16.90;99.90
42031;DHT22;27709;52.036;5.906;2022-10-23T17:16:05;16.90;99.90
42031;DHT22;27709;52.036;5.906;2022-10-23T17:18:32;16.90;99.90
42031;DHT22;27709;52.036;5.906;2022-10-23T17:20:58;16.90;99.90
42031;DHT22;27709;52.036;5.906;2022-10-23T17:23:24;16.90;99.90
42031;DHT22;27709;52.036;5.906;2022-10-23T17:25:51;16.90;99.90
42031;DHT22;27709;52.036;5.906;2022-10-23T17:28:16;16.90;99.90
42031;DHT22;27709;52.036;5.906;2022-10-23T17:30:42;16.90;99.90